sensor_id;sensor_type;location;lat;lon;timestamp;P1;durP1;ratioP1;P2;durP2;ratioP2
5587;SDS011;2816;49.778;9.986;2023-12-20T00:01:01;10.97;;;7.97;;
5587;SDS011;2816;49.778;9.986;2023-12-20T00:03:28;8.57;;;7.30;;
5587;SDS011;2816;49.778;9.986;2023-12-20T00:05:55;11.70;;;7.70;;
5587;SDS011;2816;49.778;9.986;2023-12-20T00:08:22;10.20;;;6.97;;
5587;SDS011;2816;49.778;9.986;2023-12-20T00:10:50;10.80;;;7.50;;
5587;SDS011;2816;49.778;9.986;2023-12-20T00:13:17;9.30;;;6.73;;
5587;SDS011;2816;49.778;9.986;2023-12-20T00:15:44;12.63;;;7.47;;
5587;SDS011;2816;49.778;9.986;2023-12-20T00:18:10;11.53;;;7.80;;
5587;SDS011;2816;49.778;9.986;2023-12-20T00:20:37;9.03;;;6.67;;
5587;SDS011;2816;49.778;9.986;2023-12-20T00:23:04;7.13;;;6.20;;
5587;SDS011;2816;49.778;9.986;2023-12-20T00:25:32;10.20;;;7.07;;
5587;SDS011;2816;49.778;9.986;2023-12-20T00:28:01;11.83;;;6.97;;
5587;SDS011;2816;49.778;9.986;2023-12-20T00:30:28;8.03;;;6.07;;
5587;SDS011;2816;49.778;9.986;2023-12-20T00:32:55;6.47;;;4.87;;
5587;SDS011;2816;49.778;9.986;2023-12-20T00:35:22;10.93;;;6.27;;
5587;SDS011;2816;49.778;9.986;2023-12-20T00:37:48;8.53;;;5.83;;
5587;SDS011;2816;49.778;9.986;2023-12-20T00:40:15;8.03;;;4.57;;
5587;SDS011;2816;49.778;9.986;2023-12-20T00:42:42;8.90;;;5.70;;
5587;SDS011;2816;49.778;9.986;2023-12-20T00:45:10;7.43;;;4.57;;
5587;SDS011;2816;49.778;9.986;2023-12-20T00:47:37;7.53;;;4.77;;
5587;SDS011;2816;49.778;9.986;2023-12-20T00:50:05;10.60;;;3.83;;
5587;SDS011;2816;49.778;9.986;2023-12-20T00:52:32;4.77;;;3.63;;
5587;SDS011;2816;49.778;9.986;2023-12-20T00:55:01;5.63;;;4.27;;
5587;SDS011;2816;49.778;9.986;2023-12-20T00:57:29;5.73;;;3.50;;
5587;SDS011;2816;49.778;9.986;2023-12-20T00:59:56;7.23;;;3.27;;
5587;SDS011;2816;49.778;9.986;2023-12-20T01:02:24;3.97;;;3.23;;
5587;SDS011;2816;49.778;9.986;2023-12-20T01:04:51;2.73;;;2.50;;
5587;SDS011;2816;49.778;9.986;2023-12-20T01:07:18;5.10;;;3.57;;
5587;SDS011;2816;49.778;9.986;2023-12-20T01:09:45;2.40;;;2.20;;
5587;SDS011;2816;49.778;9.986;2023-12-20T01:12:12;2.83;;;2.60;;
5587;SDS011;2816;49.778;9.986;2023-12-20T01:14:38;2.27;;;2.07;;
5587;SDS011;2816;49.778;9.986;2023-12-20T01:17:05;2.80;;;2.60;;
5587;SDS011;2816;49.778;9.986;2023-12-20T01:19:34;2.87;;;2.30;;
5587;SDS011;2816;49.778;9.986;2023-12-20T01:22:01;2.13;;;1.97;;
5587;SDS011;2816;49.778;9.986;2023-12-20T01:24:28;2.13;;;2.00;;
5587;SDS011;2816;49.778;9.986;2023-12-20T01:26:55;2.37;;;1.67;;
5587;SDS011;2816;49.778;9.986;2023-12-20T01:29:22;1.30;;;1.20;;
5587;SDS011;2816;49.778;9.986;2023-12-20T01:31:49;2.70;;;2.00;;
5587;SDS011;2816;49.778;9.986;2023-12-20T01:34:15;1.67;;;1.20;;
5587;SDS011;2816;49.778;9.986;2023-12-20T01:36:44;1.20;;;1.10;;
5587;SDS011;2816;49.778;9.986;2023-12-20T01:39:11;0.90;;;0.90;;
5587;SDS011;2816;49.778;9.986;2023-12-20T01:41:37;0.90;;;0.90;;
5587;SDS011;2816;49.778;9.986;2023-12-20T01:44:04;0.70;;;0.70;;
5587;SDS011;2816;49.778;9.986;2023-12-20T01:46:31;1.10;;;1.00;;
5587;SDS011;2816;49.778;9.986;2023-12-20T01:48:58;0.90;;;0.90;;
5587;SDS011;2816;49.778;9.986;2023-12-20T01:51:25;1.27;;;1.17;;
5587;SDS011;2816;49.778;9.986;2023-12-20T01:53:54;1.80;;;1.10;;
5587;SDS011;2816;49.778;9.986;2023-12-20T01:56:23;0.93;;;0.80;;
5587;SDS011;2816;49.778;9.986;2023-12-20T01:58:50;1.10;;;0.90;;
5587;SDS011;2816;49.778;9.986;2023-12-20T02:01:17;1.03;;;0.93;;
5587;SDS011;2816;49.778;9.986;2023-12-20T02:03:45;0.70;;;0.70;;
5587;SDS011;2816;49.778;9.986;2023-12-20T02:06:12;0.80;;;0.80;;
5587;SDS011;2816;49.778;9.986;2023-12-20T02:08:39;1.00;;;0.90;;
5587;SDS011;2816;49.778;9.986;2023-12-20T02:11:07;0.80;;;0.80;;
5587;SDS011;2816;49.778;9.986;2023-12-20T02:13:35;0.70;;;0.70;;
5587;SDS011;2816;49.778;9.986;2023-12-20T02:16:02;0.70;;;0.70;;
5587;SDS011;2816;49.778;9.986;2023-12-20T02:18:29;0.67;;;0.67;;
5587;SDS011;2816;49.778;9.986;2023-12-20T02:20:56;0.80;;;0.77;;
5587;SDS011;2816;49.778;9.986;2023-12-20T02:23:24;0.70;;;0.70;;
5587;SDS011;2816;49.778;9.986;2023-12-20T02:25:51;1.23;;;0.90;;
5587;SDS011;2816;49.778;9.986;2023-12-20T02:28:18;0.73;;;0.73;;
5587;SDS011;2816;49.778;9.986;2023-12-20T02:30:46;2.20;;;0.90;;
5587;SDS011;2816;49.778;9.986;2023-12-20T02:33:14;0.80;;;0.80;;
5587;SDS011;2816;49.778;9.986;2023-12-20T02:35:42;1.80;;;0.80;;
5587;SDS011;2816;49.778;9.986;2023-12-20T02:38:08;1.13;;;0.90;;
5587;SDS011;2816;49.778;9.986;2023-12-20T02:40:37;0.70;;;0.70;;
5587;SDS011;2816;49.778;9.986;2023-12-20T02:43:04;1.00;;;0.90;;
5587;SDS011;2816;49.778;9.986;2023-12-20T02:45:31;1.17;;;0.87;;
5587;SDS011;2816;49.778;9.986;2023-12-20T02:47:57;0.77;;;0.77;;
5587;SDS011;2816;49.778;9.986;2023-12-20T02:50:24;0.80;;;0.80;;
5587;SDS011;2816;49.778;9.986;2023-12-20T02:52:51;0.87;;;0.87;;
5587;SDS011;2816;49.778;9.986;2023-12-20T02:55:18;0.90;;;0.80;;
5587;SDS011;2816;49.778;9.986;2023-12-20T02:57:46;0.90;;;0.90;;
5587;SDS011;2816;49.778;9.986;2023-12-20T03:00:13;1.27;;;1.17;;
5587;SDS011;2816;49.778;9.986;2023-12-20T03:02:40;0.70;;;0.70;;
5587;SDS011;2816;49.778;9.986;2023-12-20T03:05:07;0.90;;;0.90;;
5587;SDS011;2816;49.778;9.986;2023-12-20T03:07:36;2.33;;;0.97;;
5587;SDS011;2816;49.778;9.986;2023-12-20T03:10:03;0.90;;;0.90;;
5587;SDS011;2816;49.778;9.986;2023-12-20T03:12:31;1.10;;;0.90;;
5587;SDS011;2816;49.778;9.986;2023-12-20T03:14:59;1.00;;;0.80;;
5587;SDS011;2816;49.778;9.986;2023-12-20T03:17:26;0.80;;;0.80;;
5587;SDS011;2816;49.778;9.986;2023-12-20T03:19:53;0.83;;;0.83;;
5587;SDS011;2816;49.778;9.986;2023-12-20T03:22:20;0.70;;;0.70;;
5587;SDS011;2816;49.778;9.986;2023-12-20T03:24:47;0.90;;;0.90;;
5587;SDS011;2816;49.778;9.986;2023-12-20T03:27:14;0.73;;;0.73;;
5587;SDS011;2816;49.778;9.986;2023-12-20T03:29:40;1.00;;;0.87;;
5587;SDS011;2816;49.778;9.986;2023-12-20T03:32:09;0.60;;;0.60;;
5587;SDS011;2816;49.778;9.986;2023-12-20T03:34:35;0.77;;;0.77;;
5587;SDS011;2816;49.778;9.986;2023-12-20T03:37:02;0.70;;;0.70;;
5587;SDS011;2816;49.778;9.986;2023-12-20T03:39:29;0.80;;;0.80;;
5587;SDS011;2816;49.778;9.986;2023-12-20T03:41:56;0.80;;;0.80;;
5587;SDS011;2816;49.778;9.986;2023-12-20T03:44:23;0.93;;;0.93;;
5587;SDS011;2816;49.778;9.986;2023-12-20T03:46:50;0.70;;;0.70;;
5587;SDS011;2816;49.778;9.986;2023-12-20T03:49:18;0.80;;;0.80;;
5587;SDS011;2816;49.778;9.986;2023-12-20T03:51:45;0.80;;;0.80;;
5587;SDS011;2816;49.778;9.986;2023-12-20T03:54:12;0.93;;;0.80;;
5587;SDS011;2816;49.778;9.986;2023-12-20T03:56:39;0.70;;;0.70;;
5587;SDS011;2816;49.778;9.986;2023-12-20T03:59:05;0.70;;;0.70;;
5587;SDS011;2816;49.778;9.986;2023-12-20T04:01:32;1.10;;;0.80;;
5587;SDS011;2816;49.778;9.986;2023-12-20T04:03:59;0.70;;;0.70;;
5587;SDS011;2816;49.778;9.986;2023-12-20T04:06:27;1.00;;;1.00;;
5587;SDS011;2816;49.778;9.986;2023-12-20T04:08:54;0.90;;;0.90;;
5587;SDS011;2816;49.778;9.986;2023-12-20T04:11:21;0.90;;;0.90;;
5587;SDS011;2816;49.778;9.986;2023-12-20T04:13:48;0.90;;;0.90;;
5587;SDS011;2816;49.778;9.986;2023-12-20T04:16:15;0.80;;;0.80;;
5587;SDS011;2816;49.778;9.986;2023-12-20T04:18:41;0.83;;;0.83;;
5587;SDS011;2816;49.778;9.986;2023-12-20T04:21:08;0.83;;;0.77;;
5587;SDS011;2816;49.778;9.986;2023-12-20T04:23:37;0.73;;;0.73;;
5587;SDS011;2816;49.778;9.986;2023-12-20T04:26:04;0.73;;;0.73;;
5587;SDS011;2816;49.778;9.986;2023-12-20T04:28:30;0.80;;;0.80;;
5587;SDS011;2816;49.778;9.986;2023-12-20T04:30:57;0.87;;;0.87;;
5587;SDS011;2816;49.778;9.986;2023-12-20T04:33:24;0.80;;;0.80;;
5587;SDS011;2816;49.778;9.986;2023-12-20T04:35:51;1.00;;;1.00;;
5587;SDS011;2816;49.778;9.986;2023-12-20T04:38:18;0.80;;;0.80;;
5587;SDS011;2816;49.778;9.986;2023-12-20T04:40:46;0.77;;;0.77;;
5587;SDS011;2816;49.778;9.986;2023-12-20T04:43:13;0.97;;;0.93;;
5587;SDS011;2816;49.778;9.986;2023-12-20T04:45:40;0.90;;;0.90;;
5587;SDS011;2816;49.778;9.986;2023-12-20T04:48:07;1.03;;;1.00;;
5587;SDS011;2816;49.778;9.986;2023-12-20T04:50:34;0.80;;;0.80;;
5587;SDS011;2816;49.778;9.986;2023-12-20T04:53:00;0.90;;;0.90;;
5587;SDS011;2816;49.778;9.986;2023-12-20T04:55:27;0.80;;;0.80;;
5587;SDS011;2816;49.778;9.986;2023-12-20T04:57:56;1.10;;;1.10;;
5587;SDS011;2816;49.778;9.986;2023-12-20T05:00:23;0.80;;;0.80;;
5587;SDS011;2816;49.778;9.986;2023-12-20T05:02:50;0.90;;;0.90;;
5587;SDS011;2816;49.778;9.986;2023-12-20T05:05:17;0.87;;;0.87;;
5587;SDS011;2816;49.778;9.986;2023-12-20T05:07:44;1.23;;;0.97;;
5587;SDS011;2816;49.778;9.986;2023-12-20T05:10:11;0.80;;;0.80;;
5587;SDS011;2816;49.778;9.986;2023-12-20T05:12:37;1.83;;;1.00;;
5587;SDS011;2816;49.778;9.986;2023-12-20T05:15:06;1.27;;;1.00;;
5587;SDS011;2816;49.778;9.986;2023-12-20T05:17:34;1.40;;;1.10;;
5587;SDS011;2816;49.778;9.986;2023-12-20T05:20:01;0.90;;;0.90;;
5587;SDS011;2816;49.778;9.986;2023-12-20T05:22:28;1.20;;;1.20;;
5587;SDS011;2816;49.778;9.986;2023-12-20T05:24:55;2.30;;;0.90;;
5587;SDS011;2816;49.778;9.986;2023-12-20T05:27:22;0.97;;;0.97;;
5587;SDS011;2816;49.778;9.986;2023-12-20T05:29:49;1.90;;;1.17;;
5587;SDS011;2816;49.778;9.986;2023-12-20T05:32:17;2.30;;;1.10;;
5587;SDS011;2816;49.778;9.986;2023-12-20T05:34:44;1.17;;;1.17;;
5587;SDS011;2816;49.778;9.986;2023-12-20T05:37:11;1.20;;;1.20;;
5587;SDS011;2816;49.778;9.986;2023-12-20T05:39:38;1.10;;;1.10;;
5587;SDS011;2816;49.778;9.986;2023-12-20T05:42:05;4.20;;;2.53;;
5587;SDS011;2816;49.778;9.986;2023-12-20T05:44:32;3.33;;;2.53;;
5587;SDS011;2816;49.778;9.986;2023-12-20T05:46:59;2.40;;;2.10;;
5587;SDS011;2816;49.778;9.986;2023-12-20T05:49:27;1.80;;;1.70;;
5587;SDS011;2816;49.778;9.986;2023-12-20T05:51:54;1.90;;;1.70;;
5587;SDS011;2816;49.778;9.986;2023-12-20T05:54:20;2.33;;;1.77;;
5587;SDS011;2816;49.778;9.986;2023-12-20T05:56:48;1.90;;;1.73;;
5587;SDS011;2816;49.778;9.986;2023-12-20T05:59:15;1.97;;;1.60;;
5587;SDS011;2816;49.778;9.986;2023-12-20T06:01:42;1.63;;;1.53;;
5587;SDS011;2816;49.778;9.986;2023-12-20T06:04:09;1.70;;;1.60;;
5587;SDS011;2816;49.778;9.986;2023-12-20T06:06:41;1.57;;;1.47;;
5587;SDS011;2816;49.778;9.986;2023-12-20T06:09:08;1.80;;;1.70;;
5587;SDS011;2816;49.778;9.986;2023-12-20T06:11:35;1.83;;;1.73;;
5587;SDS011;2816;49.778;9.986;2023-12-20T06:14:02;2.00;;;1.90;;
5587;SDS011;2816;49.778;9.986;2023-12-20T06:16:29;4.80;;;3.73;;
5587;SDS011;2816;49.778;9.986;2023-12-20T06:18:56;3.10;;;2.50;;
5587;SDS011;2816;49.778;9.986;2023-12-20T06:21:23;3.17;;;2.50;;
5587;SDS011;2816;49.778;9.986;2023-12-20T06:23:51;2.00;;;1.80;;
5587;SDS011;2816;49.778;9.986;2023-12-20T06:26:18;2.83;;;2.53;;
5587;SDS011;2816;49.778;9.986;2023-12-20T06:28:45;2.20;;;2.10;;
5587;SDS011;2816;49.778;9.986;2023-12-20T06:31:12;2.20;;;2.10;;
5587;SDS011;2816;49.778;9.986;2023-12-20T06:33:38;2.87;;;2.30;;
5587;SDS011;2816;49.778;9.986;2023-12-20T06:36:07;3.33;;;3.00;;
5587;SDS011;2816;49.778;9.986;2023-12-20T06:38:36;3.40;;;3.13;;
5587;SDS011;2816;49.778;9.986;2023-12-20T06:41:05;2.30;;;2.10;;
5587;SDS011;2816;49.778;9.986;2023-12-20T06:43:32;2.63;;;2.43;;
5587;SDS011;2816;49.778;9.986;2023-12-20T06:46:00;2.83;;;2.60;;
5587;SDS011;2816;49.778;9.986;2023-12-20T06:48:27;5.47;;;3.90;;
5587;SDS011;2816;49.778;9.986;2023-12-20T06:50:54;7.13;;;3.70;;
5587;SDS011;2816;49.778;9.986;2023-12-20T06:53:20;3.27;;;3.03;;
5587;SDS011;2816;49.778;9.986;2023-12-20T06:55:47;3.17;;;2.77;;
5587;SDS011;2816;49.778;9.986;2023-12-20T06:58:15;3.90;;;3.53;;
5587;SDS011;2816;49.778;9.986;2023-12-20T07:00:42;5.00;;;3.40;;
5587;SDS011;2816;49.778;9.986;2023-12-20T07:03:09;4.30;;;3.90;;
5587;SDS011;2816;49.778;9.986;2023-12-20T07:05:36;4.97;;;2.90;;
5587;SDS011;2816;49.778;9.986;2023-12-20T07:08:04;4.20;;;3.40;;
5587;SDS011;2816;49.778;9.986;2023-12-20T07:10:31;4.10;;;3.70;;
5587;SDS011;2816;49.778;9.986;2023-12-20T07:12:58;4.30;;;3.60;;
5587;SDS011;2816;49.778;9.986;2023-12-20T07:15:26;3.67;;;3.37;;
5587;SDS011;2816;49.778;9.986;2023-12-20T07:17:54;3.70;;;3.40;;
5587;SDS011;2816;49.778;9.986;2023-12-20T07:20:21;4.20;;;3.07;;
5587;SDS011;2816;49.778;9.986;2023-12-20T07:22:48;3.00;;;2.70;;
5587;SDS011;2816;49.778;9.986;2023-12-20T07:25:16;2.43;;;2.23;;
5587;SDS011;2816;49.778;9.986;2023-12-20T07:27:43;3.30;;;2.80;;
5587;SDS011;2816;49.778;9.986;2023-12-20T07:30:10;2.47;;;2.30;;
5587;SDS011;2816;49.778;9.986;2023-12-20T07:32:39;2.50;;;2.30;;
5587;SDS011;2816;49.778;9.986;2023-12-20T07:35:06;2.60;;;2.40;;
5587;SDS011;2816;49.778;9.986;2023-12-20T07:37:33;2.50;;;2.30;;
5587;SDS011;2816;49.778;9.986;2023-12-20T07:40:00;3.27;;;2.70;;
5587;SDS011;2816;49.778;9.986;2023-12-20T07:42:28;3.40;;;2.90;;
5587;SDS011;2816;49.778;9.986;2023-12-20T07:44:55;5.80;;;2.50;;
5587;SDS011;2816;49.778;9.986;2023-12-20T07:47:22;4.73;;;2.67;;
5587;SDS011;2816;49.778;9.986;2023-12-20T07:49:51;3.87;;;2.67;;
5587;SDS011;2816;49.778;9.986;2023-12-20T07:52:18;11.00;;;4.43;;
5587;SDS011;2816;49.778;9.986;2023-12-20T07:54:47;5.57;;;3.03;;
5587;SDS011;2816;49.778;9.986;2023-12-20T07:57:13;4.17;;;2.67;;
5587;SDS011;2816;49.778;9.986;2023-12-20T07:59:40;4.13;;;2.33;;
5587;SDS011;2816;49.778;9.986;2023-12-20T08:02:09;6.93;;;2.83;;
5587;SDS011;2816;49.778;9.986;2023-12-20T08:04:36;4.33;;;2.77;;
5587;SDS011;2816;49.778;9.986;2023-12-20T08:07:07;4.73;;;2.47;;
5587;SDS011;2816;49.778;9.986;2023-12-20T08:09:34;4.47;;;2.73;;
5587;SDS011;2816;49.778;9.986;2023-12-20T08:12:02;13.00;;;3.10;;
5587;SDS011;2816;49.778;9.986;2023-12-20T08:14:29;5.90;;;2.63;;
5587;SDS011;2816;49.778;9.986;2023-12-20T08:16:56;8.23;;;2.93;;
5587;SDS011;2816;49.778;9.986;2023-12-20T08:19:23;4.40;;;2.53;;
5587;SDS011;2816;49.778;9.986;2023-12-20T08:21:50;4.27;;;2.73;;
5587;SDS011;2816;49.778;9.986;2023-12-20T08:24:18;4.97;;;2.83;;
5587;SDS011;2816;49.778;9.986;2023-12-20T08:26:45;6.27;;;2.93;;
5587;SDS011;2816;49.778;9.986;2023-12-20T08:29:12;6.00;;;2.70;;
5587;SDS011;2816;49.778;9.986;2023-12-20T08:31:39;10.43;;;3.47;;
5587;SDS011;2816;49.778;9.986;2023-12-20T08:34:06;5.83;;;2.90;;
5587;SDS011;2816;49.778;9.986;2023-12-20T08:36:33;5.20;;;2.53;;
5587;SDS011;2816;49.778;9.986;2023-12-20T08:39:00;6.93;;;3.20;;
5587;SDS011;2816;49.778;9.986;2023-12-20T08:41:30;8.30;;;3.17;;
5587;SDS011;2816;49.778;9.986;2023-12-20T08:43:57;6.40;;;2.40;;
5587;SDS011;2816;49.778;9.986;2023-12-20T08:46:24;6.23;;;2.30;;
5587;SDS011;2816;49.778;9.986;2023-12-20T08:48:50;11.37;;;2.90;;
5587;SDS011;2816;49.778;9.986;2023-12-20T08:51:17;11.13;;;2.10;;
5587;SDS011;2816;49.778;9.986;2023-12-20T08:53:46;6.27;;;2.50;;
5587;SDS011;2816;49.778;9.986;2023-12-20T08:56:13;5.33;;;2.77;;
5587;SDS011;2816;49.778;9.986;2023-12-20T08:58:41;5.60;;;2.40;;
5587;SDS011;2816;49.778;9.986;2023-12-20T09:01:08;5.53;;;2.00;;
5587;SDS011;2816;49.778;9.986;2023-12-20T09:03:35;4.37;;;2.10;;
5587;SDS011;2816;49.778;9.986;2023-12-20T09:06:02;3.37;;;1.90;;
5587;SDS011;2816;49.778;9.986;2023-12-20T09:08:30;5.13;;;2.20;;
5587;SDS011;2816;49.778;9.986;2023-12-20T09:10:57;5.90;;;2.50;;
5587;SDS011;2816;49.778;9.986;2023-12-20T09:13:25;7.10;;;2.17;;
5587;SDS011;2816;49.778;9.986;2023-12-20T09:15:56;5.83;;;1.87;;
5587;SDS011;2816;49.778;9.986;2023-12-20T09:18:23;5.30;;;2.03;;
5587;SDS011;2816;49.778;9.986;2023-12-20T09:20:50;4.00;;;1.90;;
5587;SDS011;2816;49.778;9.986;2023-12-20T09:23:17;6.63;;;2.17;;
5587;SDS011;2816;49.778;9.986;2023-12-20T09:25:44;1.50;;;1.10;;
5587;SDS011;2816;49.778;9.986;2023-12-20T09:28:11;7.80;;;1.80;;
5587;SDS011;2816;49.778;9.986;2023-12-20T09:30:38;5.80;;;1.73;;
5587;SDS011;2816;49.778;9.986;2023-12-20T09:33:06;6.03;;;1.63;;
5587;SDS011;2816;49.778;9.986;2023-12-20T09:35:33;4.63;;;1.57;;
5587;SDS011;2816;49.778;9.986;2023-12-20T09:38:00;3.20;;;1.90;;
5587;SDS011;2816;49.778;9.986;2023-12-20T09:40:27;6.80;;;1.73;;
5587;SDS011;2816;49.778;9.986;2023-12-20T09:42:56;4.80;;;1.90;;
5587;SDS011;2816;49.778;9.986;2023-12-20T09:45:24;4.40;;;1.60;;
5587;SDS011;2816;49.778;9.986;2023-12-20T09:47:51;5.90;;;1.70;;
5587;SDS011;2816;49.778;9.986;2023-12-20T09:50:20;3.37;;;1.70;;
5587;SDS011;2816;49.778;9.986;2023-12-20T09:52:49;5.23;;;1.77;;
5587;SDS011;2816;49.778;9.986;2023-12-20T09:55:17;6.13;;;1.67;;
5587;SDS011;2816;49.778;9.986;2023-12-20T09:57:45;5.93;;;1.77;;
5587;SDS011;2816;49.778;9.986;2023-12-20T10:00:12;7.00;;;1.73;;
5587;SDS011;2816;49.778;9.986;2023-12-20T10:02:42;3.73;;;1.63;;
5587;SDS011;2816;49.778;9.986;2023-12-20T10:05:16;8.90;;;1.83;;
5587;SDS011;2816;49.778;9.986;2023-12-20T10:07:47;3.30;;;1.50;;
5587;SDS011;2816;49.778;9.986;2023-12-20T10:10:14;2.87;;;1.67;;
5587;SDS011;2816;49.778;9.986;2023-12-20T10:12:41;4.10;;;1.40;;
5587;SDS011;2816;49.778;9.986;2023-12-20T10:15:27;3.83;;;1.63;;
5587;SDS011;2816;49.778;9.986;2023-12-20T10:17:54;9.07;;;1.90;;
5587;SDS011;2816;49.778;9.986;2023-12-20T10:20:21;4.40;;;1.47;;
5587;SDS011;2816;49.778;9.986;2023-12-20T10:22:51;4.00;;;1.80;;
5587;SDS011;2816;49.778;9.986;2023-12-20T10:25:19;5.20;;;1.80;;
5587;SDS011;2816;49.778;9.986;2023-12-20T10:27:46;3.63;;;1.20;;
5587;SDS011;2816;49.778;9.986;2023-12-20T10:30:13;2.50;;;1.40;;
5587;SDS011;2816;49.778;9.986;2023-12-20T10:32:40;2.13;;;1.40;;
5587;SDS011;2816;49.778;9.986;2023-12-20T10:35:08;3.90;;;2.30;;
5587;SDS011;2816;49.778;9.986;2023-12-20T10:37:36;4.83;;;1.97;;
5587;SDS011;2816;49.778;9.986;2023-12-20T10:40:05;5.10;;;1.53;;
5587;SDS011;2816;49.778;9.986;2023-12-20T10:42:33;3.07;;;1.60;;
5587;SDS011;2816;49.778;9.986;2023-12-20T10:45:02;8.40;;;1.70;;
5587;SDS011;2816;49.778;9.986;2023-12-20T10:47:30;5.17;;;1.60;;
5587;SDS011;2816;49.778;9.986;2023-12-20T10:49:59;4.17;;;1.83;;
5587;SDS011;2816;49.778;9.986;2023-12-20T10:52:26;2.37;;;1.40;;
5587;SDS011;2816;49.778;9.986;2023-12-20T10:54:55;6.23;;;2.20;;
5587;SDS011;2816;49.778;9.986;2023-12-20T10:57:23;3.53;;;1.40;;
5587;SDS011;2816;49.778;9.986;2023-12-20T10:59:54;4.60;;;2.00;;
5587;SDS011;2816;49.778;9.986;2023-12-20T11:02:22;9.43;;;2.40;;
5587;SDS011;2816;49.778;9.986;2023-12-20T11:04:50;9.50;;;2.10;;
5587;SDS011;2816;49.778;9.986;2023-12-20T11:07:21;5.07;;;1.43;;
5587;SDS011;2816;49.778;9.986;2023-12-20T11:09:55;7.50;;;1.37;;
5587;SDS011;2816;49.778;9.986;2023-12-20T11:12:32;2.20;;;1.50;;
5587;SDS011;2816;49.778;9.986;2023-12-20T11:15:06;2.93;;;1.80;;
5587;SDS011;2816;49.778;9.986;2023-12-20T11:17:35;9.37;;;2.00;;
5587;SDS011;2816;49.778;9.986;2023-12-20T11:20:08;2.87;;;1.43;;
5587;SDS011;2816;49.778;9.986;2023-12-20T11:22:37;4.40;;;2.00;;
5587;SDS011;2816;49.778;9.986;2023-12-20T11:25:07;5.20;;;2.00;;
5587;SDS011;2816;49.778;9.986;2023-12-20T11:27:36;4.63;;;1.23;;
5587;SDS011;2816;49.778;9.986;2023-12-20T11:30:08;6.77;;;1.83;;
5587;SDS011;2816;49.778;9.986;2023-12-20T11:32:35;3.50;;;1.60;;
5587;SDS011;2816;49.778;9.986;2023-12-20T11:35:16;8.20;;;2.00;;
5587;SDS011;2816;49.778;9.986;2023-12-20T11:37:44;4.40;;;1.73;;
5587;SDS011;2816;49.778;9.986;2023-12-20T11:40:14;3.53;;;1.90;;
5587;SDS011;2816;49.778;9.986;2023-12-20T11:42:44;3.70;;;1.40;;
5587;SDS011;2816;49.778;9.986;2023-12-20T11:45:15;1.30;;;1.10;;
5587;SDS011;2816;49.778;9.986;2023-12-20T11:47:45;5.90;;;2.03;;
5587;SDS011;2816;49.778;9.986;2023-12-20T11:50:14;4.60;;;1.83;;
5587;SDS011;2816;49.778;9.986;2023-12-20T11:52:41;8.77;;;2.07;;
5587;SDS011;2816;49.778;9.986;2023-12-20T11:55:08;6.23;;;2.10;;
5587;SDS011;2816;49.778;9.986;2023-12-20T11:57:35;7.60;;;2.13;;
5587;SDS011;2816;49.778;9.986;2023-12-20T12:00:04;4.47;;;1.70;;
5587;SDS011;2816;49.778;9.986;2023-12-20T12:02:32;4.73;;;1.70;;
5587;SDS011;2816;49.778;9.986;2023-12-20T12:04:59;4.30;;;1.70;;
5587;SDS011;2816;49.778;9.986;2023-12-20T12:07:26;5.37;;;1.63;;
5587;SDS011;2816;49.778;9.986;2023-12-20T12:09:53;4.87;;;1.70;;
5587;SDS011;2816;49.778;9.986;2023-12-20T12:12:20;10.17;;;2.00;;
5587;SDS011;2816;49.778;9.986;2023-12-20T12:14:49;7.70;;;2.20;;
5587;SDS011;2816;49.778;9.986;2023-12-20T12:17:17;5.93;;;2.00;;
5587;SDS011;2816;49.778;9.986;2023-12-20T12:19:44;6.13;;;2.17;;
5587;SDS011;2816;49.778;9.986;2023-12-20T12:22:12;4.30;;;1.77;;
5587;SDS011;2816;49.778;9.986;2023-12-20T12:24:41;4.53;;;2.00;;
5587;SDS011;2816;49.778;9.986;2023-12-20T12:27:11;6.17;;;1.80;;
5587;SDS011;2816;49.778;9.986;2023-12-20T12:29:38;4.20;;;1.70;;
5587;SDS011;2816;49.778;9.986;2023-12-20T12:32:06;9.90;;;1.80;;
5587;SDS011;2816;49.778;9.986;2023-12-20T12:34:35;3.10;;;1.60;;
5587;SDS011;2816;49.778;9.986;2023-12-20T12:37:03;4.43;;;1.60;;
5587;SDS011;2816;49.778;9.986;2023-12-20T12:39:30;5.20;;;1.70;;
5587;SDS011;2816;49.778;9.986;2023-12-20T12:41:57;9.40;;;2.83;;
5587;SDS011;2816;49.778;9.986;2023-12-20T12:44:24;5.73;;;2.20;;
5587;SDS011;2816;49.778;9.986;2023-12-20T12:46:51;6.30;;;2.60;;
5587;SDS011;2816;49.778;9.986;2023-12-20T12:49:18;9.40;;;2.90;;
5587;SDS011;2816;49.778;9.986;2023-12-20T12:51:47;4.40;;;1.83;;
5587;SDS011;2816;49.778;9.986;2023-12-20T12:54:14;9.20;;;3.50;;
5587;SDS011;2816;49.778;9.986;2023-12-20T12:56:43;8.87;;;2.10;;
5587;SDS011;2816;49.778;9.986;2023-12-20T12:59:12;8.97;;;3.10;;
5587;SDS011;2816;49.778;9.986;2023-12-20T13:01:39;4.60;;;2.07;;
5587;SDS011;2816;49.778;9.986;2023-12-20T13:04:05;8.40;;;2.50;;
5587;SDS011;2816;49.778;9.986;2023-12-20T13:06:35;6.10;;;2.33;;
5587;SDS011;2816;49.778;9.986;2023-12-20T13:09:04;4.60;;;1.80;;
5587;SDS011;2816;49.778;9.986;2023-12-20T13:11:31;4.70;;;2.00;;
5587;SDS011;2816;49.778;9.986;2023-12-20T13:13:57;5.27;;;1.60;;
5587;SDS011;2816;49.778;9.986;2023-12-20T13:16:24;3.47;;;1.57;;
5587;SDS011;2816;49.778;9.986;2023-12-20T13:18:51;4.97;;;1.53;;
5587;SDS011;2816;49.778;9.986;2023-12-20T13:21:18;6.30;;;2.37;;
5587;SDS011;2816;49.778;9.986;2023-12-20T13:23:45;6.90;;;2.27;;
5587;SDS011;2816;49.778;9.986;2023-12-20T13:26:13;8.93;;;2.03;;
5587;SDS011;2816;49.778;9.986;2023-12-20T13:28:40;8.40;;;2.70;;
5587;SDS011;2816;49.778;9.986;2023-12-20T13:31:07;11.17;;;3.23;;
5587;SDS011;2816;49.778;9.986;2023-12-20T13:33:34;9.63;;;2.90;;
5587;SDS011;2816;49.778;9.986;2023-12-20T13:36:01;5.10;;;2.80;;
5587;SDS011;2816;49.778;9.986;2023-12-20T13:38:29;11.67;;;3.90;;
5587;SDS011;2816;49.778;9.986;2023-12-20T13:40:56;12.40;;;3.40;;
5587;SDS011;2816;49.778;9.986;2023-12-20T13:43:25;9.83;;;4.90;;
5587;SDS011;2816;49.778;9.986;2023-12-20T13:45:52;15.53;;;4.70;;
5587;SDS011;2816;49.778;9.986;2023-12-20T13:48:20;6.80;;;2.20;;
5587;SDS011;2816;49.778;9.986;2023-12-20T13:50:47;7.00;;;3.63;;
5587;SDS011;2816;49.778;9.986;2023-12-20T13:53:13;9.23;;;2.53;;
5587;SDS011;2816;49.778;9.986;2023-12-20T13:55:40;11.03;;;4.17;;
5587;SDS011;2816;49.778;9.986;2023-12-20T13:58:07;8.20;;;2.47;;
5587;SDS011;2816;49.778;9.986;2023-12-20T14:00:36;4.83;;;2.33;;
5587;SDS011;2816;49.778;9.986;2023-12-20T14:03:05;3.37;;;1.67;;
5587;SDS011;2816;49.778;9.986;2023-12-20T14:05:32;6.77;;;2.30;;
5587;SDS011;2816;49.778;9.986;2023-12-20T14:07:59;8.93;;;2.20;;
5587;SDS011;2816;49.778;9.986;2023-12-20T14:10:26;3.87;;;2.20;;
5587;SDS011;2816;49.778;9.986;2023-12-20T14:12:53;2.60;;;1.50;;
5587;SDS011;2816;49.778;9.986;2023-12-20T14:15:20;10.13;;;2.70;;
5587;SDS011;2816;49.778;9.986;2023-12-20T14:17:48;7.53;;;2.93;;
5587;SDS011;2816;49.778;9.986;2023-12-20T14:20:15;6.03;;;2.83;;
5587;SDS011;2816;49.778;9.986;2023-12-20T14:22:43;4.00;;;1.87;;
5587;SDS011;2816;49.778;9.986;2023-12-20T14:25:10;14.20;;;2.37;;
5587;SDS011;2816;49.778;9.986;2023-12-20T14:27:37;7.00;;;2.50;;
5587;SDS011;2816;49.778;9.986;2023-12-20T14:30:06;8.13;;;2.30;;
5587;SDS011;2816;49.778;9.986;2023-12-20T14:32:34;8.20;;;2.70;;
5587;SDS011;2816;49.778;9.986;2023-12-20T14:35:05;9.73;;;2.87;;
5587;SDS011;2816;49.778;9.986;2023-12-20T14:37:33;10.00;;;2.20;;
5587;SDS011;2816;49.778;9.986;2023-12-20T14:40:00;10.30;;;3.20;;
5587;SDS011;2816;49.778;9.986;2023-12-20T14:42:27;8.67;;;1.90;;
5587;SDS011;2816;49.778;9.986;2023-12-20T14:44:54;7.00;;;1.97;;
5587;SDS011;2816;49.778;9.986;2023-12-20T14:47:21;2.43;;;1.50;;
5587;SDS011;2816;49.778;9.986;2023-12-20T14:49:49;2.93;;;1.93;;
5587;SDS011;2816;49.778;9.986;2023-12-20T14:52:18;7.90;;;2.50;;
5587;SDS011;2816;49.778;9.986;2023-12-20T14:54:45;6.20;;;2.17;;
5587;SDS011;2816;49.778;9.986;2023-12-20T14:57:13;7.70;;;3.03;;
5587;SDS011;2816;49.778;9.986;2023-12-20T14:59:40;4.50;;;2.37;;
5587;SDS011;2816;49.778;9.986;2023-12-20T15:02:08;7.63;;;2.80;;
5587;SDS011;2816;49.778;9.986;2023-12-20T15:04:35;6.20;;;2.43;;
5587;SDS011;2816;49.778;9.986;2023-12-20T15:07:02;7.00;;;2.67;;
5587;SDS011;2816;49.778;9.986;2023-12-20T15:09:32;7.10;;;2.73;;
5587;SDS011;2816;49.778;9.986;2023-12-20T15:11:59;4.37;;;2.33;;
5587;SDS011;2816;49.778;9.986;2023-12-20T15:14:26;2.57;;;1.80;;
5587;SDS011;2816;49.778;9.986;2023-12-20T15:16:53;9.37;;;3.30;;